Time;durP1;ratioP1;P1;durP2;ratioP2;P2;SDS_P1;SDS_P2;PMS_P1;PMS_P2;Temp;Humidity;BMP_temperature;BMP_pressure;BME280_temperature;BME280_humidity;BME280_pressure;Samples;Min_cycle;Max_cycle;Signal;HPM_P1;HPM_P2
2022/07/07 00:01:37;;;;;;;15.13;9.02;;;16.20;99.90;;;;;;4881853;29;20049;-80
2022/07/07 00:04:03;;;;;;;13.18;8.52;;;16.20;99.90;;;;;;4882295;29;20197;-80
2022/07/07 00:06:29;;;;;;;12.65;8.55;;;16.20;99.90;;;;;;4882939;29;20088;-80
2022/07/07 00:08:55;;;;;;;12.00;8.25;;;16.20;99.90;;;;;;4882799;29;20100;-79
2022/07/07 00:11:25;;;;;;;13.20;7.47;;;16.20;99.90;;;;;;4866206;29;20060;-80
2022/07/07 00:13:51;;;;;;;11.68;7.82;;;16.20;99.90;;;;;;4882701;29;20117;-81
2022/07/07 00:16:18;;;;;;;14.63;7.95;;;16.20;99.90;;;;;;4866146;29;20048;-81
2022/07/07 00:18:44;;;;;;;12.52;8.10;;;16.20;99.90;;;;;;4882461;29;20502;-82
2022/07/07 00:21:10;;;;;;;12.93;7.68;;;16.30;99.90;;;;;;4897015;29;20088;-81
2022/07/07 00:23:36;;;;;;;12.23;7.40;;;16.30;99.90;;;;;;4864800;29;20156;-82
2022/07/07 00:26:03;;;;;;;11.43;7.20;;;16.30;99.90;;;;;;4866204;29;20446;-82
2022/07/07 00:28:28;;;;;;;9.32;6.70;;;16.30;99.90;;;;;;4881914;29;20063;-82
2022/07/07 00:30:54;;;;;;;9.23;6.13;;;16.30;99.90;;;;;;4882534;29;20128;-84
2022/07/07 00:33:20;;;;;;;12.20;6.50;;;16.30;99.90;;;;;;4881863;29;20045;-81
2022/07/07 00:35:45;;;;;;;9.32;6.22;;;16.30;99.90;;;;;;4881410;29;20063;-76
2022/07/07 00:38:11;;;;;;;12.18;6.50;;;16.30;99.90;;;;;;4881361;29;20059;-80
2022/07/07 00:40:37;;;;;;;9.15;5.90;;;16.30;99.90;;;;;;4881406;29;20053;-79
2022/07/07 00:43:04;;;;;;;13.13;6.65;;;16.30;99.90;;;;;;4881119;29;20049;-81
2022/07/07 00:45:30;;;;;;;9.02;5.47;;;16.30;99.90;;;;;;4881105;29;20057;-78
2022/07/07 00:47:57;;;;;;;9.90;6.47;;;16.30;99.90;;;;;;4881980;29;20049;-78
2022/07/07 00:50:24;;;;;;;11.55;5.97;;;16.20;99.90;;;;;;4882141;29;20056;-79
2022/07/07 00:52:50;;;;;;;7.28;5.50;;;16.30;99.90;;;;;;4880749;29;20174;-81
2022/07/07 00:55:15;;;;;;;9.30;6.30;;;16.30;99.90;;;;;;4880787;29;20140;-82
2022/07/07 00:57:41;;;;;;;7.63;5.40;;;16.30;99.90;;;;;;4865651;29;20057;-79
2022/07/07 01:00:11;;;;;;;9.82;6.15;;;16.30;99.90;;;;;;4882046;29;20049;-81
2022/07/07 01:02:37;;;;;;;12.32;6.53;;;16.30;99.90;;;;;;4881868;29;20052;-80
2022/07/07 01:05:05;;;;;;;10.40;6.68;;;16.30;99.90;;;;;;4896079;29;20041;-81
2022/07/07 01:07:32;;;;;;;9.57;6.18;;;16.30;99.90;;;;;;4881796;29;20053;-78
2022/07/07 01:09:58;;;;;;;8.40;5.45;;;16.30;99.90;;;;;;4881854;29;20092;-79
2022/07/07 01:12:25;;;;;;;8.77;6.70;;;16.30;99.90;;;;;;4881580;29;20135;-80
2022/07/07 01:14:50;;;;;;;10.70;6.38;;;16.30;99.90;;;;;;4882177;29;20419;-82
2022/07/07 01:17:16;;;;;;;11.63;6.15;;;16.30;99.90;;;;;;4880734;29;20144;-78
2022/07/07 01:19:42;;;;;;;8.25;6.15;;;16.30;99.90;;;;;;4881554;29;20084;-80
2022/07/07 01:22:12;;;;;;;10.63;6.22;;;16.30;99.90;;;;;;4881228;29;20053;-81
2022/07/07 01:24:38;;;;;;;8.73;5.85;;;16.30;99.90;;;;;;4881389;29;20049;-81
2022/07/07 01:27:14;;;;;;;7.15;4.00;;;16.20;99.90;;;;;;4881408;29;20056;-80
2022/07/07 01:29:44;;;;;;;6.53;4.45;;;16.20;99.90;;;;;;4881425;29;20437;-77
2022/07/07 01:32:10;;;;;;;6.43;3.97;;;16.20;99.90;;;;;;4880998;29;20457;-74
2022/07/07 01:34:38;;;;;;;7.60;4.38;;;16.20;99.90;;;;;;4880988;29;20089;-77
2022/07/07 01:37:04;;;;;;;8.43;3.83;;;16.20;99.90;;;;;;4880042;29;20097;-77
2022/07/07 01:39:30;;;;;;;5.10;2.92;;;16.10;99.90;;;;;;4881337;29;20497;-79
2022/07/07 01:41:56;;;;;;;3.83;2.28;;;16.10;99.90;;;;;;4895556;29;20105;-71
2022/07/07 01:44:21;;;;;;;4.05;2.03;;;16.10;99.90;;;;;;4881078;29;20045;-78
2022/07/07 01:46:47;;;;;;;4.50;1.98;;;16.10;99.90;;;;;;4880101;29;20498;-77
2022/07/07 01:49:13;;;;;;;2.92;1.95;;;16.00;99.90;;;;;;4880941;29;20500;-79
2022/07/07 01:51:39;;;;;;;3.72;2.25;;;16.00;99.90;;;;;;4880679;29;20056;-81
2022/07/07 01:54:05;;;;;;;4.60;2.08;;;16.00;99.90;;;;;;4879415;29;20105;-80
2022/07/07 01:56:31;;;;;;;5.60;2.20;;;16.00;99.90;;;;;;4879616;29;20052;-78
2022/07/07 01:58:56;;;;;;;4.75;2.55;;;16.00;99.90;;;;;;4895284;29;20486;-80
2022/07/07 02:01:23;;;;;;;5.18;2.40;;;15.90;99.90;;;;;;4881669;29;20056;-79
2022/07/07 02:03:49;;;;;;;3.60;1.80;;;15.90;99.90;;;;;;4880869;29;20053;-77
2022/07/07 02:06:15;;;;;;;3.17;1.95;;;15.90;99.90;;;;;;4879503;29;20045;-78
2022/07/07 02:08:40;;;;;;;3.05;2.00;;;15.90;99.90;;;;;;4864171;29;20056;-76
2022/07/07 02:11:15;;;;;;;2.95;1.60;;;15.90;99.90;;;;;;4879583;29;20049;-79
2022/07/07 02:13:49;;;;;;;3.05;1.92;;;15.90;99.90;;;;;;4866119;29;20052;-75
2022/07/07 02:16:17;;;;;;;3.40;1.48;;;15.90;99.90;;;;;;4880808;29;20075;-79
2022/07/07 02:18:44;;;;;;;4.45;1.67;;;15.80;99.90;;;;;;4879092;29;20502;-78
2022/07/07 02:21:12;;;;;;;5.47;2.38;;;15.90;99.90;;;;;;4864108;29;20109;-78
2022/07/07 02:23:39;;;;;;;4.85;2.10;;;15.90;99.90;;;;;;4880454;29;20084;-78
2022/07/07 02:26:05;;;;;;;3.85;2.20;;;15.90;99.90;;;;;;4879467;29;20053;-78
2022/07/07 02:28:31;;;;;;;4.90;2.08;;;15.90;99.90;;;;;;4880359;29;20049;-78
2022/07/07 02:30:58;;;;;;;6.82;2.47;;;15.90;99.90;;;;;;4880392;29;20127;-77
2022/07/07 02:33:24;;;;;;;5.30;2.33;;;15.90;99.90;;;;;;4879448;29;20049;-78
2022/07/07 02:35:50;;;;;;;7.68;2.50;;;15.90;99.90;;;;;;4879228;29;20053;-77
2022/07/07 02:38:16;;;;;;;3.60;1.95;;;15.90;99.90;;;;;;4863922;29;20084;-77
2022/07/07 02:40:43;;;;;;;11.85;2.85;;;15.90;99.90;;;;;;4880246;29;20091;-76
2022/07/07 02:43:12;;;;;;;4.68;2.30;;;15.90;99.90;;;;;;4880791;29;20044;-75
2022/07/07 02:45:42;;;;;;;3.70;2.08;;;15.90;99.90;;;;;;4879625;29;20056;-77
2022/07/07 02:48:09;;;;;;;6.35;2.25;;;15.90;99.90;;;;;;4878744;29;20052;-65
2022/07/07 02:50:36;;;;;;;6.07;2.20;;;15.90;99.90;;;;;;4880019;29;20053;-65
2022/07/07 02:53:02;;;;;;;5.05;2.33;;;15.90;99.90;;;;;;4880071;29;20053;-65
2022/07/07 02:55:30;;;;;;;5.72;2.50;;;15.90;99.90;;;;;;4879852;29;20057;-65
2022/07/07 02:57:56;;;;;;;5.55;2.65;;;15.90;99.90;;;;;;4879971;29;20128;-64
2022/07/07 03:00:22;;;;;;;4.30;2.30;;;15.90;99.90;;;;;;4879875;29;20093;-65
2022/07/07 03:02:47;;;;;;;7.07;2.17;;;15.90;99.90;;;;;;4879891;29;20100;-65
2022/07/07 03:05:13;;;;;;;7.13;2.22;;;15.90;99.90;;;;;;4879876;29;20072;-65
2022/07/07 03:07:39;;;;;;;7.15;2.33;;;15.90;99.90;;;;;;4879827;29;20072;-64
2022/07/07 03:10:06;;;;;;;7.15;3.13;;;15.90;99.90;;;;;;4879845;29;20056;-64
2022/07/07 03:12:32;;;;;;;4.50;2.60;;;15.90;99.90;;;;;;4880564;29;20085;-65
2022/07/07 03:14:58;;;;;;;7.53;2.60;;;15.90;99.90;;;;;;4879785;29;20084;-65
2022/07/07 03:17:24;;;;;;;4.78;2.47;;;15.90;99.90;;;;;;4879758;29;20136;-64
2022/07/07 03:19:49;;;;;;;5.15;2.00;;;15.90;99.90;;;;;;4880047;29;20073;-65
2022/07/07 03:22:15;;;;;;;6.72;2.45;;;15.90;99.90;;;;;;4879827;29;20507;-65
2022/07/07 03:24:41;;;;;;;5.30;2.00;;;15.90;99.90;;;;;;4879670;29;20430;-65
2022/07/07 03:27:07;;;;;;;5.00;2.00;;;15.90;99.90;;;;;;4878437;29;20057;-65
2022/07/07 03:29:33;;;;;;;3.85;1.77;;;15.90;99.90;;;;;;4879722;29;20519;-64
2022/07/07 03:31:59;;;;;;;3.25;1.90;;;15.90;99.90;;;;;;4878961;29;20131;-64
2022/07/07 03:34:24;;;;;;;6.70;1.85;;;15.90;99.90;;;;;;4879605;29;20052;-65
2022/07/07 03:36:50;;;;;;;7.97;1.90;;;15.90;99.90;;;;;;4879594;29;20049;-65
2022/07/07 03:39:16;;;;;;;3.90;1.73;;;15.80;99.90;;;;;;4879841;29;20497;-65
2022/07/07 03:41:41;;;;;;;10.20;1.35;;;15.90;99.90;;;;;;4879577;29;20055;-65
2022/07/07 03:44:07;;;;;;;9.63;2.15;;;15.80;99.90;;;;;;4879814;29;20057;-66
2022/07/07 03:46:33;;;;;;;7.78;1.67;;;15.80;99.90;;;;;;4879492;29;20045;-66
2022/07/07 03:48:59;;;;;;;6.38;2.22;;;15.80;99.90;;;;;;4879478;29;20057;-66
2022/07/07 03:51:25;;;;;;;6.43;2.00;;;15.80;99.90;;;;;;4879446;29;20059;-66
2022/07/07 03:53:50;;;;;;;8.60;1.75;;;15.80;99.90;;;;;;4878947;29;20052;-66
2022/07/07 03:56:16;;;;;;;4.22;1.30;;;15.70;99.90;;;;;;4880138;29;20049;-65
2022/07/07 03:58:42;;;;;;;4.55;0.90;;;15.70;99.90;;;;;;4882069;29;20474;-65
2022/07/07 04:01:07;;;;;;;4.95;0.77;;;15.70;99.90;;;;;;4882043;29;20454;-66
2022/07/07 04:03:33;;;;;;;3.28;0.60;;;15.60;99.90;;;;;;4882616;29;20049;-66
2022/07/07 04:05:59;;;;;;;3.88;0.70;;;15.60;99.90;;;;;;4883379;29;20096;-66
2022/07/07 04:08:24;;;;;;;6.18;0.70;;;15.50;99.90;;;;;;4882794;29;20136;-66
2022/07/07 04:10:50;;;;;;;6.32;0.70;;;15.50;99.90;;;;;;4883307;29;20045;-65
2022/07/07 04:13:16;;;;;;;7.60;0.98;;;15.50;99.90;;;;;;4882061;29;20049;-66
2022/07/07 04:15:42;;;;;;;4.55;0.73;;;15.40;99.90;;;;;;4896809;29;20049;-65
2022/07/07 04:18:07;;;;;;;9.15;0.80;;;15.50;99.90;;;;;;4883442;29;20063;-66
2022/07/07 04:20:33;;;;;;;4.93;0.60;;;15.50;99.90;;;;;;4881352;29;20181;-66
2022/07/07 04:22:59;;;;;;;3.92;1.02;;;15.40;99.90;;;;;;4882547;29;20052;-66
2022/07/07 04:25:24;;;;;;;7.45;0.80;;;15.40;99.90;;;;;;4881476;29;20053;-65
2022/07/07 04:27:50;;;;;;;3.90;0.63;;;15.40;99.90;;;;;;4882416;29;20140;-65
2022/07/07 04:30:16;;;;;;;2.60;0.50;;;15.40;99.90;;;;;;4882424;29;20105;-66
2022/07/07 04:32:42;;;;;;;5.78;0.60;;;15.40;99.90;;;;;;4882442;29;20052;-65
2022/07/07 04:35:09;;;;;;;3.85;0.82;;;15.40;99.90;;;;;;4882564;29;20049;-64
2022/07/07 04:37:34;;;;;;;3.28;0.40;;;15.30;99.90;;;;;;4882320;29;20175;-65
2022/07/07 04:40:01;;;;;;;5.32;0.60;;;15.30;99.90;;;;;;4881013;29;20056;-66
2022/07/07 04:42:26;;;;;;;5.68;0.60;;;15.30;99.90;;;;;;4882033;29;20096;-65
2022/07/07 04:44:52;;;;;;;3.78;0.65;;;15.30;99.90;;;;;;4882977;29;20080;-65
2022/07/07 04:47:18;;;;;;;3.40;0.55;;;15.30;99.90;;;;;;4882661;29;20487;-66
2022/07/07 04:49:43;;;;;;;7.07;0.60;;;15.30;99.90;;;;;;4880911;29;20072;-65
2022/07/07 04:52:09;;;;;;;6.65;0.90;;;15.20;99.90;;;;;;4882022;29;20053;-66
2022/07/07 04:54:35;;;;;;;3.30;0.63;;;15.20;99.90;;;;;;4881396;29;20059;-65
2022/07/07 04:57:01;;;;;;;8.15;0.90;;;15.20;99.90;;;;;;4881945;29;20065;-66
2022/07/07 04:59:26;;;;;;;5.30;0.80;;;15.20;99.90;;;;;;4882149;29;20052;-66
2022/07/07 05:01:52;;;;;;;7.80;0.90;;;15.20;99.90;;;;;;4882891;29;20049;-67
2022/07/07 05:04:18;;;;;;;7.32;0.95;;;15.10;99.90;;;;;;4881804;29;20053;-67
2022/07/07 05:06:44;;;;;;;8.73;0.85;;;15.10;99.90;;;;;;4881756;29;20099;-67
2022/07/07 05:09:09;;;;;;;4.00;0.90;;;15.00;99.90;;;;;;4881259;29;20133;-68
2022/07/07 05:11:36;;;;;;;4.10;0.70;;;15.00;99.90;;;;;;4881971;29;20632;-66
2022/07/07 05:14:02;;;;;;;5.78;0.80;;;14.90;99.90;;;;;;4880750;29;20112;-66
2022/07/07 05:16:29;;;;;;;4.10;0.95;;;14.90;99.90;;;;;;4881578;29;20053;-68
2022/07/07 05:18:55;;;;;;;5.70;0.90;;;14.80;99.90;;;;;;4881651;29;20068;-67
2022/07/07 05:21:21;;;;;;;7.30;1.00;;;14.80;99.90;;;;;;4881540;29;20390;-67
2022/07/07 05:23:47;;;;;;;9.90;1.00;;;14.80;99.90;;;;;;4881165;29;20049;-67
2022/07/07 05:26:13;;;;;;;5.10;1.45;;;14.80;99.90;;;;;;4881469;29;20045;-67
2022/07/07 05:28:41;;;;;;;9.88;1.52;;;14.80;99.90;;;;;;4881379;29;20056;-67
2022/07/07 05:31:12;;;;;;;5.22;1.10;;;14.80;99.90;;;;;;4880402;29;20059;-66
2022/07/07 05:33:38;;;;;;;6.95;1.27;;;14.80;99.90;;;;;;4881325;29;20490;-67
2022/07/07 05:36:05;;;;;;;4.70;1.10;;;14.80;99.90;;;;;;4881203;29;20533;-67
2022/07/07 05:38:31;;;;;;;8.68;1.13;;;14.80;99.90;;;;;;4881183;29;20048;-67
2022/07/07 05:40:57;;;;;;;7.45;1.35;;;14.80;99.90;;;;;;4880883;29;20486;-67
2022/07/07 05:43:22;;;;;;;3.80;0.90;;;14.80;99.90;;;;;;4881127;29;20048;-67
2022/07/07 05:45:48;;;;;;;8.65;1.27;;;14.90;99.90;;;;;;4881163;29;20545;-67
2022/07/07 05:48:14;;;;;;;9.43;1.38;;;14.80;99.90;;;;;;4881088;29;20443;-67
2022/07/07 05:50:40;;;;;;;8.20;1.50;;;14.80;99.90;;;;;;4880544;29;20490;-67
2022/07/07 05:53:06;;;;;;;8.52;1.40;;;14.80;99.90;;;;;;4880950;29;20128;-67
2022/07/07 05:55:32;;;;;;;8.15;1.52;;;14.80;99.90;;;;;;4881849;29;20390;-67
2022/07/07 05:57:58;;;;;;;10.80;1.45;;;14.80;99.90;;;;;;4895319;29;20048;-67
2022/07/07 06:00:24;;;;;;;7.18;1.40;;;14.90;99.90;;;;;;4880829;29;20049;-67
2022/07/07 06:02:51;;;;;;;6.13;1.02;;;14.90;99.90;;;;;;4881564;29;20057;-67
2022/07/07 06:05:17;;;;;;;5.95;1.00;;;14.80;99.90;;;;;;4880322;29;20049;-67
2022/07/07 06:07:43;;;;;;;8.02;1.63;;;14.90;99.90;;;;;;4879790;29;20048;-67
2022/07/07 06:10:14;;;;;;;7.82;1.17;;;14.80;99.90;;;;;;4879588;29;20100;-67
2022/07/07 06:12:41;;;;;;;9.38;1.52;;;14.80;99.90;;;;;;4881497;29;20190;-67
2022/07/07 06:15:07;;;;;;;9.20;1.38;;;14.80;99.90;;;;;;4880528;29;20135;-67
2022/07/07 06:17:33;;;;;;;9.77;1.35;;;14.80;99.90;;;;;;4879630;29;20181;-67
2022/07/07 06:19:59;;;;;;;11.65;1.35;;;14.80;99.90;;;;;;4880678;29;20049;-67
2022/07/07 06:22:25;;;;;;;7.63;1.15;;;14.80;99.90;;;;;;4880524;29;20049;-67
2022/07/07 06:24:51;;;;;;;7.90;1.27;;;14.80;99.90;;;;;;4880325;29;20049;-67
2022/07/07 06:27:17;;;;;;;7.18;1.30;;;14.80;99.90;;;;;;4880649;29;20125;-66
2022/07/07 06:29:42;;;;;;;5.43;1.17;;;14.90;99.90;;;;;;4879396;29;20462;-66
2022/07/07 06:32:08;;;;;;;8.05;1.25;;;14.90;99.90;;;;;;4880805;29;20136;-67
2022/07/07 06:34:34;;;;;;;8.38;1.35;;;14.90;99.90;;;;;;4880688;29;20078;-69
2022/07/07 06:36:59;;;;;;;6.82;1.10;;;14.90;99.90;;;;;;4880192;29;20063;-67
2022/07/07 06:39:25;;;;;;;5.15;1.02;;;15.00;99.90;;;;;;4880955;29;20104;-66
2022/07/07 06:41:51;;;;;;;8.32;1.10;;;15.00;99.90;;;;;;4880139;29;20089;-66
2022/07/07 06:44:17;;;;;;;7.32;1.30;;;15.00;99.90;;;;;;4879920;29;20128;-66
2022/07/07 06:46:42;;;;;;;5.50;1.30;;;15.10;99.90;;;;;;4880115;29;20095;-66
2022/07/07 06:49:08;;;;;;;3.92;1.00;;;15.10;99.90;;;;;;4879128;29;20045;-67
2022/07/07 06:51:34;;;;;;;8.15;1.00;;;15.10;99.90;;;;;;4880058;29;20140;-67
2022/07/07 06:54:00;;;;;;;8.40;1.13;;;15.10;99.90;;;;;;4878738;29;20151;-66
2022/07/07 06:56:26;;;;;;;6.93;0.80;;;15.10;99.90;;;;;;4879896;29;20052;-66
2022/07/07 06:58:52;;;;;;;8.73;1.42;;;15.20;99.90;;;;;;4879964;29;20053;-66
2022/07/07 07:01:18;;;;;;;4.70;0.85;;;15.20;99.90;;;;;;4879535;29;20057;-66
2022/07/07 07:03:43;;;;;;;5.13;1.15;;;15.20;99.90;;;;;;4880037;29;20489;-66
2022/07/07 07:06:09;;;;;;;4.38;0.90;;;15.30;99.90;;;;;;4878981;29;20563;-66
2022/07/07 07:08:35;;;;;;;4.97;0.95;;;15.30;99.90;;;;;;4879259;29;20052;-65
2022/07/07 07:11:02;;;;;;;5.07;0.90;;;15.40;99.90;;;;;;4878910;29;20149;-66
2022/07/07 07:13:29;;;;;;;4.22;1.00;;;15.50;99.90;;;;;;4878621;29;20401;-66
2022/07/07 07:15:55;;;;;;;4.78;1.40;;;15.60;99.90;;;;;;4880259;29;20045;-66
2022/07/07 07:18:20;;;;;;;6.63;0.93;;;15.60;99.90;;;;;;4879406;29;20347;-66
2022/07/07 07:20:46;;;;;;;3.90;0.70;;;15.60;99.90;;;;;;4879782;29;20486;-66
2022/07/07 07:23:12;;;;;;;5.05;0.85;;;15.70;99.90;;;;;;4879136;29;20486;-65
2022/07/07 07:25:37;;;;;;;3.70;0.70;;;15.80;99.90;;;;;;4879348;29;20056;-65
2022/07/07 07:28:03;;;;;;;4.13;1.08;;;15.80;99.90;;;;;;4879733;29;20049;-65
2022/07/07 07:30:29;;;;;;;5.72;0.80;;;15.80;99.90;;;;;;4880345;29;20084;-66
2022/07/07 07:32:55;;;;;;;5.57;1.30;;;15.80;99.90;;;;;;4896475;29;20045;-65
2022/07/07 07:35:21;;;;;;;3.40;0.65;;;15.90;99.90;;;;;;4884018;29;20085;-65
2022/07/07 07:37:47;;;;;;;4.72;0.93;;;16.00;99.90;;;;;;4883551;29;20049;-66
2022/07/07 07:40:13;;;;;;;3.10;0.55;;;16.10;99.90;;;;;;4882293;29;20449;-65
2022/07/07 07:42:39;;;;;;;2.90;0.60;;;16.20;99.90;;;;;;4883446;29;20049;-66
2022/07/07 07:45:12;;;;;;;4.32;0.50;;;16.20;99.90;;;;;;4883375;29;20048;-65
2022/07/07 07:47:38;;;;;;;3.85;0.57;;;16.10;99.90;;;;;;4884211;29;20049;-65
2022/07/07 07:50:06;;;;;;;6.05;0.80;;;16.10;99.90;;;;;;4883843;29;20052;-65
2022/07/07 07:52:31;;;;;;;2.63;0.60;;;16.10;99.90;;;;;;4882313;29;20065;-66
2022/07/07 07:54:57;;;;;;;3.00;0.50;;;16.20;99.90;;;;;;4883233;29;20430;-65
2022/07/07 07:57:23;;;;;;;4.95;0.70;;;16.20;99.90;;;;;;4883191;29;20053;-65
2022/07/07 07:59:49;;;;;;;4.45;0.60;;;16.20;99.90;;;;;;4882582;29;20533;-66
2022/07/07 08:02:14;;;;;;;2.97;0.60;;;16.20;99.90;;;;;;4883119;29;20136;-66
2022/07/07 08:04:40;;;;;;;7.32;1.15;;;16.20;99.90;;;;;;4882996;29;20409;-66
2022/07/07 08:07:06;;;;;;;3.80;0.60;;;16.30;99.90;;;;;;4883205;29;20045;-66
2022/07/07 08:09:31;;;;;;;2.92;0.40;;;16.30;99.90;;;;;;4882760;29;20064;-67
2022/07/07 08:11:57;;;;;;;3.40;0.35;;;16.40;99.90;;;;;;4897030;29;20462;-66
2022/07/07 08:14:23;;;;;;;6.57;0.50;;;16.40;99.90;;;;;;4882832;29;20051;-66
2022/07/07 08:16:48;;;;;;;1.25;0.30;;;16.40;99.90;;;;;;4883287;29;20056;-66
2022/07/07 08:19:19;;;;;;;2.25;0.40;;;16.40;99.90;;;;;;4882780;29;20409;-66
2022/07/07 08:21:48;;;;;;;1.58;0.40;;;16.40;99.90;;;;;;4882107;29;20063;-67
2022/07/07 08:24:14;;;;;;;4.10;0.40;;;16.40;99.90;;;;;;4882622;29;20049;-68
2022/07/07 08:26:41;;;;;;;4.45;0.70;;;16.40;99.90;;;;;;4882651;29;20053;-67
2022/07/07 08:29:07;;;;;;;1.88;0.50;;;16.50;99.90;;;;;;4866282;29;20045;-66
2022/07/07 08:31:32;;;;;;;1.52;0.40;;;16.70;99.90;;;;;;4882592;29;20053;-66
2022/07/07 08:33:58;;;;;;;2.28;0.68;;;16.80;99.90;;;;;;4882536;29;20413;-67
2022/07/07 08:36:24;;;;;;;3.13;0.47;;;16.80;99.90;;;;;;4882940;29;20466;-66
2022/07/07 08:38:50;;;;;;;3.30;0.40;;;16.70;99.90;;;;;;4882426;29;20059;-66
2022/07/07 08:41:16;;;;;;;1.65;0.50;;;16.50;99.90;;;;;;4881233;29;20089;-66
2022/07/07 08:43:42;;;;;;;2.85;0.50;;;16.40;99.90;;;;;;4881469;29;20053;-66
2022/07/07 08:46:09;;;;;;;3.15;0.50;;;16.40;99.90;;;;;;4882337;29;20108;-66
2022/07/07 08:48:35;;;;;;;3.30;0.70;;;16.40;99.90;;;;;;4882250;29;20473;-66
2022/07/07 08:51:04;;;;;;;3.17;0.60;;;16.40;99.90;;;;;;4882210;29;20093;-66
2022/07/07 08:53:34;;;;;;;2.88;0.50;;;16.50;99.90;;;;;;4882045;29;20065;-67
2022/07/07 08:56:05;;;;;;;4.13;0.50;;;16.50;99.90;;;;;;4882836;29;20092;-67
2022/07/07 08:58:35;;;;;;;1.70;0.40;;;16.20;99.90;;;;;;4881822;29;20113;-67
2022/07/07 09:01:05;;;;;;;2.05;0.40;;;16.20;99.90;;;;;;4882110;29;20049;-67
2022/07/07 09:03:30;;;;;;;1.25;0.47;;;16.20;99.90;;;;;;4882016;29;20045;-66
2022/07/07 09:05:57;;;;;;;1.75;0.40;;;16.10;99.90;;;;;;4881724;29;20048;-66
2022/07/07 09:08:24;;;;;;;1.80;0.40;;;16.10;99.90;;;;;;4881274;29;20056;-66
2022/07/07 09:10:50;;;;;;;1.65;0.47;;;16.10;99.90;;;;;;4880138;29;20053;-67
2022/07/07 09:13:29;;;;;;;2.33;0.50;;;16.10;99.90;;;;;;4880652;29;20520;-66
2022/07/07 09:16:03;;;;;;;3.22;0.50;;;16.30;99.90;;;;;;4880863;29;20044;-66
2022/07/07 09:18:36;;;;;;;2.75;0.65;;;16.40;99.90;;;;;;4880969;29;20061;-66
2022/07/07 09:21:05;;;;;;;4.13;0.60;;;16.60;99.90;;;;;;4880912;29;20041;-66
2022/07/07 09:23:32;;;;;;;2.72;0.57;;;16.60;99.90;;;;;;4880845;29;20089;-66
2022/07/07 09:25:59;;;;;;;3.22;0.50;;;16.70;99.90;;;;;;4880781;29;20057;-66
2022/07/07 09:28:26;;;;;;;3.63;0.70;;;16.60;99.90;;;;;;4880985;29;20053;-66
2022/07/07 09:30:53;;;;;;;2.85;0.70;;;16.60;99.90;;;;;;4880964;29;20133;-66
2022/07/07 09:33:24;;;;;;;1.90;0.80;;;16.60;99.90;;;;;;4895246;29;20053;-66
2022/07/07 09:38:37;;;;;;;4.00;0.70;;;16.50;99.90;;;;;;4881383;29;20140;-66
2022/07/07 09:41:08;;;;;;;3.25;0.70;;;16.60;99.90;;;;;;4880661;29;20068;-66
2022/07/07 09:43:36;;;;;;;2.13;0.55;;;16.60;99.90;;;;;;4879797;29;20061;-66
2022/07/07 09:46:18;;;;;;;4.72;0.70;;;16.60;99.90;;;;;;4880527;29;20041;-66
2022/07/07 09:48:56;;;;;;;3.03;0.60;;;16.70;99.90;;;;;;4880609;29;20056;-66
2022/07/07 09:51:39;;;;;;;6.55;0.77;;;16.70;99.90;;;;;;4879952;29;20056;-66
2022/07/07 09:54:14;;;;;;;4.72;0.80;;;16.80;99.90;;;;;;4894207;29;20056;-66
2022/07/07 09:56:48;;;;;;;5.72;1.20;;;16.90;99.90;;;;;;4880707;29;20045;-66
2022/07/07 09:59:16;;;;;;;3.85;0.93;;;16.90;99.90;;;;;;4879083;29;20124;-66
2022/07/07 10:01:44;;;;;;;3.50;0.70;;;16.90;99.90;;;;;;4880259;29;20113;-66
2022/07/07 10:04:12;;;;;;;5.30;0.77;;;16.90;99.90;;;;;;4863966;29;20447;-66
2022/07/07 10:06:40;;;;;;;1.40;0.50;;;16.90;99.90;;;;;;4894491;29;20080;-65
2022/07/07 10:09:09;;;;;;;2.25;0.40;;;16.90;99.90;;;;;;4880024;29;20048;-66
2022/07/07 10:11:40;;;;;;;2.30;0.40;;;17.00;99.90;;;;;;4879997;29;20079;-66
2022/07/07 10:14:22;;;;;;;3.38;0.43;;;17.00;99.90;;;;;;4879870;29;20049;-66
2022/07/07 10:16:50;;;;;;;4.25;0.60;;;16.90;99.90;;;;;;4879346;29;20049;-66
2022/07/07 10:19:18;;;;;;;3.42;0.57;;;17.20;99.90;;;;;;4880188;29;20141;-66
2022/07/07 10:21:49;;;;;;;2.60;0.57;;;16.70;99.90;;;;;;4879591;29;20045;-67
2022/07/07 10:24:19;;;;;;;5.32;0.70;;;16.60;99.90;;;;;;4879952;29;20056;-67
2022/07/07 10:26:47;;;;;;;4.00;0.60;;;16.50;99.90;;;;;;4879889;29;20474;-67
2022/07/07 10:29:13;;;;;;;8.23;1.38;;;16.50;99.90;;;;;;4880447;29;20124;-67
2022/07/07 10:31:39;;;;;;;4.47;0.80;;;16.50;99.90;;;;;;4879625;29;20553;-67
2022/07/07 10:34:10;;;;;;;6.32;0.80;;;16.60;99.90;;;;;;4879582;29;20260;-66
2022/07/07 10:36:51;;;;;;;5.75;0.98;;;16.60;99.90;;;;;;4879521;29;20079;-66
2022/07/07 10:39:21;;;;;;;6.18;1.17;;;16.50;99.90;;;;;;4879963;29;20127;-66
2022/07/07 10:42:06;;;;;;;8.32;1.30;;;16.40;99.90;;;;;;4879426;29;20052;-66
2022/07/07 10:44:33;;;;;;;4.00;0.82;;;16.40;99.90;;;;;;4880300;29;20121;-67
2022/07/07 10:47:25;;;;;;;6.10;0.90;;;16.30;99.90;;;;;;4878367;29;20503;-66
2022/07/07 10:49:53;;;;;;;5.93;1.10;;;16.20;99.90;;;;;;4893195;29;20553;-66
2022/07/07 10:52:28;;;;;;;7.15;1.27;;;16.20;99.90;;;;;;4879483;29;20052;-67
2022/07/07 10:55:00;;;;;;;6.18;0.98;;;16.20;99.90;;;;;;4879030;29;20057;-66
2022/07/07 10:57:29;;;;;;;7.95;0.80;;;16.20;99.90;;;;;;4880022;29;20052;-66
2022/07/07 11:00:00;;;;;;;6.07;1.13;;;16.30;99.90;;;;;;4879718;29;20456;-66
2022/07/07 11:02:31;;;;;;;9.88;1.23;;;16.30;99.90;;;;;;4879264;29;20075;-66
2022/07/07 11:04:58;;;;;;;9.43;1.80;;;16.40;99.90;;;;;;4877951;29;20563;-66
2022/07/07 11:07:26;;;;;;;11.98;1.50;;;16.40;99.90;;;;;;4878621;29;20049;-67
2022/07/07 11:10:01;;;;;;;6.47;1.25;;;16.40;99.90;;;;;;4878071;29;20127;-66
2022/07/07 11:12:48;;;;;;;8.05;1.20;;;16.30;99.90;;;;;;4879496;29;20045;-66
2022/07/07 11:15:22;;;;;;;11.73;1.40;;;16.30;99.90;;;;;;4879877;29;20071;-67
2022/07/07 11:18:15;;;;;;;10.00;1.42;;;16.30;99.90;;;;;;4879216;29;20116;-67
2022/07/07 11:21:09;;;;;;;7.85;1.30;;;16.30;99.90;;;;;;4878865;29;20064;-66
2022/07/07 11:23:57;;;;;;;8.88;0.80;;;16.30;99.90;;;;;;4870577;29;20204;-67
2022/07/07 11:26:26;;;;;;;8.23;0.88;;;16.40;99.90;;;;;;4878999;29;20463;-67
2022/07/07 11:28:55;;;;;;;6.80;0.80;;;16.50;99.90;;;;;;4878869;29;20105;-67
2022/07/07 11:31:21;;;;;;;4.85;1.00;;;16.50;99.90;;;;;;4878720;29;20056;-66
2022/07/07 11:33:52;;;;;;;8.57;0.90;;;16.60;99.90;;;;;;4878959;29;20092;-66
2022/07/07 11:36:24;;;;;;;6.38;1.17;;;16.60;99.90;;;;;;4878942;29;20048;-66
2022/07/07 11:38:56;;;;;;;8.00;0.80;;;16.60;99.90;;;;;;4879371;29;20068;-66
2022/07/07 11:41:44;;;;;;;6.80;1.27;;;16.70;99.90;;;;;;4893399;29;20667;-67
2022/07/07 11:44:19;;;;;;;7.95;1.02;;;16.60;99.90;;;;;;4878586;29;20092;-66
2022/07/07 11:46:52;;;;;;;8.73;1.23;;;16.60;99.90;;;;;;4879484;29;20452;-66
2022/07/07 11:49:19;;;;;;;10.07;1.30;;;16.50;99.90;;;;;;4880088;29;20059;-66
2022/07/07 11:51:45;;;;;;;7.35;1.33;;;16.50;99.90;;;;;;4879651;29;20053;-67
2022/07/07 11:54:12;;;;;;;7.95;1.10;;;16.40;99.90;;;;;;4878757;29;20092;-67
2022/07/07 11:56:37;;;;;;;7.25;1.60;;;16.40;99.90;;;;;;4877948;29;20136;-67
2022/07/07 11:59:04;;;;;;;7.43;1.30;;;16.40;99.90;;;;;;4878152;29;20132;-66
2022/07/07 12:01:35;;;;;;;9.73;1.10;;;16.50;99.90;;;;;;4879568;29;20177;-67
2022/07/07 12:04:12;;;;;;;7.80;1.30;;;16.60;99.90;;;;;;4879071;29;20049;-67
2022/07/07 12:06:37;;;;;;;9.45;1.50;;;16.60;99.90;;;;;;4879084;29;20053;-66
2022/07/07 12:09:04;;;;;;;9.68;1.00;;;16.70;99.90;;;;;;4878070;29;20045;-66
2022/07/07 12:11:30;;;;;;;4.43;1.00;;;16.70;99.90;;;;;;4879193;29;20100;-65
2022/07/07 12:13:57;;;;;;;9.30;1.35;;;16.70;99.90;;;;;;4878373;29;20052;-67
2022/07/07 12:16:23;;;;;;;7.53;1.25;;;16.70;99.90;;;;;;4878840;29;20045;-67
2022/07/07 12:18:48;;;;;;;6.25;1.15;;;16.70;99.90;;;;;;4879375;29;20053;-65
2022/07/07 12:21:21;;;;;;;6.95;1.17;;;16.70;99.90;;;;;;4882322;29;20087;-66
2022/07/07 12:23:52;;;;;;;8.70;1.17;;;16.80;99.90;;;;;;4882925;29;20079;-66
2022/07/07 12:26:26;;;;;;;5.75;1.20;;;16.90;99.90;;;;;;4882274;29;20523;-66
2022/07/07 12:28:59;;;;;;;7.35;1.25;;;16.90;99.90;;;;;;4882525;29;20053;-66
2022/07/07 12:31:25;;;;;;;6.82;1.30;;;16.90;99.90;;;;;;4883268;29;20147;-66
2022/07/07 12:33:50;;;;;;;6.45;1.20;;;16.90;99.90;;;;;;4883166;29;20128;-65
2022/07/07 12:36:24;;;;;;;9.93;1.27;;;16.80;99.90;;;;;;4881375;29;20546;-65
2022/07/07 12:38:56;;;;;;;8.15;1.38;;;16.70;99.90;;;;;;4882028;29;20496;-65
2022/07/07 12:41:30;;;;;;;8.95;1.20;;;16.60;99.90;;;;;;4882277;29;20057;-65
2022/07/07 12:44:11;;;;;;;6.38;1.20;;;16.60;99.90;;;;;;4882233;29;20060;-65
2022/07/07 12:46:37;;;;;;;10.27;1.20;;;16.60;99.90;;;;;;4882334;29;20053;-66
2022/07/07 12:49:04;;;;;;;7.55;1.00;;;16.60;99.90;;;;;;4882317;29;20045;-67
2022/07/07 12:51:30;;;;;;;5.68;1.10;;;16.60;99.90;;;;;;4882600;29;20091;-66